createdAt,value
2017-01-15T00:00:20.105Z,3.47
2017-01-15T00:00:46.213Z,3.48
2017-01-15T00:01:12.321Z,3.56
2017-01-15T00:01:38.426Z,3.5
2017-01-15T00:02:04.540Z,3.55
2017-01-15T00:02:30.659Z,3.56
2017-01-15T00:02:56.753Z,3.59
2017-01-15T00:03:22.889Z,3.55
2017-01-15T00:03:49.001Z,3.68
2017-01-15T00:04:15.103Z,3.55
2017-01-15T00:04:41.202Z,3.55
2017-01-15T00:05:07.294Z,3.55
2017-01-15T00:05:33.429Z,3.5
2017-01-15T00:05:59.552Z,3.5
2017-01-15T00:06:25.637Z,3.51
2017-01-15T00:06:51.735Z,3.53
2017-01-15T00:07:17.891Z,3.47
2017-01-15T00:07:43.989Z,3.53
2017-01-15T00:08:10.087Z,3.47
2017-01-15T00:08:36.194Z,3.55
2017-01-15T00:09:02.313Z,3.5
2017-01-15T00:09:28.440Z,3.56
2017-01-15T00:09:54.533Z,3.53
2017-01-15T00:10:20.648Z,3.56
2017-01-15T00:10:46.768Z,3.55
2017-01-15T00:11:12.857Z,3.53
2017-01-15T00:11:38.999Z,3.62
2017-01-15T00:12:05.110Z,3.51
2017-01-15T00:12:31.199Z,3.56
2017-01-15T00:12:57.299Z,3.59
2017-01-15T00:13:23.401Z,3.58
2017-01-15T00:13:49.493Z,3.58
2017-01-15T00:14:15.585Z,3.55
2017-01-15T00:14:41.712Z,3.53
2017-01-15T00:15:07.800Z,3.55
2017-01-15T00:15:33.909Z,3.55
2017-01-15T00:16:00.007Z,3.56
2017-01-15T00:16:26.090Z,3.5
2017-01-15T00:16:52.224Z,3.41
2017-01-15T00:17:18.349Z,3.45
2017-01-15T00:17:44.435Z,3.53
2017-01-15T00:18:10.560Z,3.47
2017-01-15T00:18:36.657Z,3.42
2017-01-15T00:19:02.789Z,3.4
2017-01-15T00:19:28.881Z,3.42
2017-01-15T00:19:55.011Z,3.44
2017-01-15T00:20:21.103Z,3.32
2017-01-15T00:20:47.212Z,3.41
2017-01-15T00:21:13.312Z,3.34
2017-01-15T00:21:39.414Z,3.37
2017-01-15T00:22:05.514Z,3.44
2017-01-15T00:22:31.598Z,3.34
2017-01-15T00:22:57.704Z,3.32
2017-01-15T00:23:23.808Z,3.28
2017-01-15T00:23:49.898Z,3.36
2017-01-15T00:24:16.010Z,3.4
2017-01-15T00:24:42.192Z,3.34
2017-01-15T00:25:08.310Z,3.28
2017-01-15T00:25:34.401Z,3.28
2017-01-15T00:26:00.524Z,3.31
2017-01-15T00:26:26.635Z,3.29
2017-01-15T00:26:52.734Z,3.32
2017-01-15T00:27:18.843Z,3.32
2017-01-15T00:27:44.961Z,3.22
2017-01-15T00:28:11.064Z,3.29
2017-01-15T00:28:37.177Z,3.21
2017-01-15T00:29:03.278Z,3.31
2017-01-15T00:29:29.375Z,3.4
2017-01-15T00:29:55.485Z,3.41
2017-01-15T00:30:21.590Z,3.28
2017-01-15T00:30:47.679Z,3.34
2017-01-15T00:31:13.781Z,3.42
2017-01-15T00:31:39.878Z,3.41
2017-01-15T00:32:05.984Z,3.48
2017-01-15T00:32:32.113Z,3.37
2017-01-15T00:32:58.199Z,3.45
2017-01-15T00:33:24.302Z,3.44
2017-01-15T00:33:50.431Z,3.41
2017-01-15T00:34:16.518Z,3.4
2017-01-15T00:34:42.624Z,3.45
2017-01-15T00:35:08.731Z,3.42
2017-01-15T00:35:34.816Z,3.41
2017-01-15T00:36:00.910Z,3.37
2017-01-15T00:36:27.025Z,3.36
2017-01-15T00:36:53.147Z,3.36
2017-01-15T00:37:19.250Z,3.41
2017-01-15T00:37:45.353Z,3.4
2017-01-15T00:38:11.467Z,3.44
2017-01-15T00:38:37.589Z,3.42
2017-01-15T00:39:03.693Z,3.44
2017-01-15T00:39:29.789Z,3.41
2017-01-15T00:39:55.914Z,3.31
2017-01-15T00:40:22.018Z,3.37
2017-01-15T00:40:48.109Z,3.4
2017-01-15T00:41:14.216Z,3.4
2017-01-15T00:41:40.313Z,3.44
2017-01-15T00:42:06.421Z,3.45
2017-01-15T00:42:32.551Z,3.4
2017-01-15T00:42:58.643Z,3.37
2017-01-15T00:43:24.758Z,3.42
2017-01-15T00:43:50.858Z,3.41
2017-01-15T00:44:16.945Z,3.4
2017-01-15T00:44:43.058Z,3.4
2017-01-15T00:45:09.184Z,3.4
2017-01-15T00:45:35.280Z,3.44
2017-01-15T00:46:01.416Z,3.37
2017-01-15T00:46:27.517Z,3.32
2017-01-15T00:46:53.637Z,3.29
2017-01-15T00:47:19.743Z,3.37
2017-01-15T00:47:45.861Z,3.41
2017-01-15T00:48:11.971Z,3.41
2017-01-15T00:48:38.069Z,3.42
2017-01-15T00:49:04.168Z,3.44
2017-01-15T00:49:30.276Z,3.48
2017-01-15T00:49:56.400Z,3.4
2017-01-15T00:50:22.505Z,3.4
2017-01-15T00:50:48.634Z,3.4
2017-01-15T00:51:14.744Z,3.37
2017-01-15T00:51:40.829Z,3.4
2017-01-15T00:52:06.923Z,3.45
2017-01-15T00:52:33.032Z,3.48
2017-01-15T00:52:59.122Z,3.42
2017-01-15T00:53:25.271Z,3.37
2017-01-15T00:53:51.354Z,3.34
2017-01-15T00:54:17.488Z,3.32
2017-01-15T00:54:43.643Z,3.29
2017-01-15T00:55:09.763Z,3.21
2017-01-15T00:55:35.884Z,3.29
2017-01-15T00:56:01.996Z,3.29
2017-01-15T00:56:28.086Z,3.29
2017-01-15T00:56:54.191Z,3.42
2017-01-15T00:57:20.289Z,3.4
2017-01-15T00:57:46.384Z,3.37
2017-01-15T00:58:12.476Z,3.29
2017-01-15T00:58:38.582Z,3.31
2017-01-15T00:59:04.677Z,3.34
2017-01-15T00:59:30.785Z,3.4
2017-01-15T00:59:56.876Z,3.32
2017-01-15T01:00:22.973Z,3.31
2017-01-15T01:00:49.079Z,3.29
2017-01-15T01:01:15.169Z,3.28
2017-01-15T01:01:41.257Z,3.22
2017-01-15T01:02:07.369Z,3.22
2017-01-15T01:02:33.464Z,3.32
2017-01-15T01:02:59.552Z,3.26
2017-01-15T01:03:25.661Z,3.22
2017-01-15T01:03:51.761Z,3.25
2017-01-15T01:04:17.856Z,3.29
2017-01-15T01:04:43.957Z,3.23
2017-01-15T01:05:10.039Z,3.25
2017-01-15T01:05:36.183Z,3.29
2017-01-15T01:06:02.277Z,3.25
2017-01-15T01:06:28.366Z,3.25
2017-01-15T01:06:54.474Z,3.21
2017-01-15T01:07:20.576Z,3.36
2017-01-15T01:07:46.663Z,3.31
2017-01-15T01:08:12.770Z,3.47
2017-01-15T01:08:38.876Z,3.26
2017-01-15T01:09:04.983Z,3.32
2017-01-15T01:09:31.081Z,3.41
2017-01-15T01:09:57.181Z,3.41
2017-01-15T01:10:23.278Z,3.34
2017-01-15T01:10:49.369Z,3.25
2017-01-15T01:11:15.476Z,3.23
2017-01-15T01:11:41.567Z,3.25
2017-01-15T01:12:07.658Z,3.26
2017-01-15T01:12:33.765Z,3.22
2017-01-15T01:12:59.855Z,3.22
2017-01-15T01:13:25.945Z,3.34
2017-01-15T01:13:52.051Z,3.32
2017-01-15T01:14:18.156Z,3.32
2017-01-15T01:14:44.241Z,3.34
2017-01-15T01:15:10.344Z,3.31
2017-01-15T01:15:36.445Z,3.36
2017-01-15T01:16:02.542Z,3.37
2017-01-15T01:16:28.633Z,3.34
2017-01-15T01:16:54.725Z,3.44
2017-01-15T01:17:20.836Z,3.45
2017-01-15T01:17:46.936Z,3.36
2017-01-15T01:18:13.025Z,3.42
2017-01-15T01:18:39.128Z,3.42
2017-01-15T01:19:05.237Z,3.45
2017-01-15T01:19:31.317Z,3.41
2017-01-15T01:19:57.412Z,3.4
2017-01-15T01:20:23.516Z,3.41
2017-01-15T01:20:49.607Z,3.47
2017-01-15T01:21:15.704Z,3.42
2017-01-15T01:21:41.796Z,3.44
2017-01-15T01:22:07.895Z,3.41
2017-01-15T01:22:34.000Z,3.5
2017-01-15T01:23:00.083Z,3.48
2017-01-15T01:23:26.176Z,3.48
2017-01-15T01:23:52.280Z,3.45
2017-01-15T01:24:18.367Z,3.47
2017-01-15T01:24:44.460Z,3.55
2017-01-15T01:25:10.573Z,3.5
2017-01-15T01:25:36.663Z,3.53
2017-01-15T01:26:02.757Z,3.48
2017-01-15T01:26:28.860Z,3.5
2017-01-15T01:26:54.967Z,3.51
2017-01-15T01:27:21.063Z,3.5
2017-01-15T01:27:47.148Z,3.48
2017-01-15T01:28:13.242Z,3.55
2017-01-15T01:28:39.349Z,3.56
2017-01-15T01:29:05.446Z,3.5
2017-01-15T01:29:31.532Z,3.59
2017-01-15T01:29:57.640Z,3.58
2017-01-15T01:30:23.735Z,3.56
2017-01-15T01:30:49.821Z,3.51
2017-01-15T01:31:15.930Z,3.59
2017-01-15T01:31:42.027Z,3.55
2017-01-15T01:32:08.121Z,3.55
2017-01-15T01:32:34.219Z,3.51
2017-01-15T01:33:00.313Z,3.55
2017-01-15T01:33:26.417Z,3.56
2017-01-15T01:33:52.508Z,3.48
2017-01-15T01:34:18.599Z,3.5
2017-01-15T01:34:44.710Z,3.55
2017-01-15T01:35:10.810Z,3.55
2017-01-15T01:35:36.897Z,3.51
2017-01-15T01:36:03.001Z,3.56
2017-01-15T01:36:29.103Z,3.59
2017-01-15T01:36:55.195Z,3.51
2017-01-15T01:37:21.285Z,3.56
2017-01-15T01:37:47.418Z,3.55
2017-01-15T01:38:13.504Z,3.5
2017-01-15T01:38:39.602Z,3.51
2017-01-15T01:39:05.694Z,3.48
2017-01-15T01:39:31.799Z,3.44
2017-01-15T01:39:57.906Z,3.53
2017-01-15T01:40:23.991Z,3.4
2017-01-15T01:40:50.084Z,3.5
2017-01-15T01:41:16.193Z,3.53
2017-01-15T01:41:42.280Z,3.45
2017-01-15T01:42:08.379Z,3.51
2017-01-15T01:42:34.482Z,3.34
2017-01-15T01:43:00.575Z,3.34
2017-01-15T01:43:26.665Z,3.32
2017-01-15T01:43:52.776Z,3.37
2017-01-15T01:44:18.874Z,3.31
2017-01-15T01:44:44.972Z,3.37
2017-01-15T01:45:11.166Z,3.41
2017-01-15T01:45:37.261Z,3.42
2017-01-15T01:46:03.405Z,3.45
2017-01-15T01:46:29.491Z,3.41
2017-01-15T01:46:55.585Z,3.4
2017-01-15T01:47:21.688Z,3.34
2017-01-15T01:47:47.781Z,3.23
2017-01-15T01:48:13.865Z,3.25
2017-01-15T01:48:39.975Z,3.25
2017-01-15T01:49:06.074Z,3.22
2017-01-15T01:49:32.169Z,3.28
2017-01-15T01:49:58.263Z,3.19
2017-01-15T01:50:24.356Z,3.25
2017-01-15T01:50:50.463Z,3.22
2017-01-15T01:51:16.557Z,3.25
2017-01-15T01:51:42.664Z,3.22
2017-01-15T01:52:08.753Z,3.25
2017-01-15T01:52:34.852Z,3.22
2017-01-15T01:53:00.946Z,3.18
2017-01-15T01:53:27.048Z,3.18
2017-01-15T01:53:53.151Z,3.19
2017-01-15T01:54:19.240Z,3.13
2017-01-15T01:54:45.340Z,3.16
2017-01-15T01:55:11.443Z,3.21
2017-01-15T01:55:37.583Z,3.21
2017-01-15T01:56:03.685Z,3.18
2017-01-15T01:56:29.785Z,3.23
2017-01-15T01:56:55.879Z,3.22
2017-01-15T01:57:21.963Z,3.29
2017-01-15T01:57:48.073Z,3.28
2017-01-15T01:58:14.175Z,3.31
2017-01-15T01:58:40.281Z,3.28
2017-01-15T01:59:06.386Z,3.25
2017-01-15T01:59:32.481Z,3.29
2017-01-15T01:59:58.574Z,3.25
2017-01-15T02:00:24.677Z,3.25
2017-01-15T02:00:50.770Z,3.31
2017-01-15T02:01:16.879Z,3.26
2017-01-15T02:01:42.970Z,3.21
2017-01-15T02:02:09.061Z,3.23
2017-01-15T02:02:35.168Z,3.18
2017-01-15T02:03:01.272Z,3.23
2017-01-15T02:03:27.357Z,3.22
2017-01-15T02:03:53.458Z,3.14
2017-01-15T02:04:19.565Z,3.19
2017-01-15T02:04:45.652Z,3.14
2017-01-15T02:05:11.749Z,3.16
2017-01-15T02:05:37.861Z,3.21
2017-01-15T02:06:03.948Z,3.18
2017-01-15T02:06:30.049Z,3.13
2017-01-15T02:06:56.145Z,3.11
2017-01-15T02:07:22.244Z,3.22
2017-01-15T02:07:48.355Z,3.18
2017-01-15T02:08:14.436Z,3.23
2017-01-15T02:08:40.539Z,3.18
2017-01-15T02:09:06.640Z,3.16
2017-01-15T02:09:32.733Z,3.16
2017-01-15T02:09:58.824Z,3.19
2017-01-15T02:10:24.933Z,3.13
2017-01-15T02:10:51.018Z,3.07
2017-01-15T02:11:17.110Z,3.13
2017-01-15T02:11:43.217Z,3.08
2017-01-15T02:12:09.314Z,3.05
2017-01-15T02:12:35.418Z,3.08
2017-01-15T02:13:01.508Z,3.18
2017-01-15T02:13:27.602Z,3.14
2017-01-15T02:13:53.712Z,3.07
2017-01-15T02:14:19.803Z,3.04
2017-01-15T02:14:45.888Z,3.05
2017-01-15T02:15:11.991Z,3.08
2017-01-15T02:15:38.089Z,3.04
2017-01-15T02:16:04.179Z,3.05
2017-01-15T02:16:30.283Z,3.07
2017-01-15T02:16:56.380Z,3.07
2017-01-15T02:17:22.478Z,3.14
2017-01-15T02:17:48.568Z,3.03
2017-01-15T02:18:14.653Z,3.07
2017-01-15T02:18:40.760Z,2.98
2017-01-15T02:19:06.858Z,2.93
2017-01-15T02:19:32.946Z,2.83
2017-01-15T02:19:59.048Z,2.89
2017-01-15T02:20:25.147Z,2.89
2017-01-15T02:20:51.234Z,2.95
2017-01-15T02:21:17.334Z,2.86
2017-01-15T02:21:43.439Z,2.89
2017-01-15T02:22:09.530Z,2.95
2017-01-15T02:22:35.630Z,2.87
2017-01-15T02:23:01.717Z,2.93
2017-01-15T02:23:27.823Z,2.97
2017-01-15T02:23:53.927Z,3.08
2017-01-15T02:24:20.015Z,3.08
2017-01-15T02:24:46.118Z,3
2017-01-15T02:25:12.217Z,2.93
2017-01-15T02:25:38.354Z,2.93
2017-01-15T02:26:04.449Z,2.87
2017-01-15T02:26:30.560Z,2.93
2017-01-15T02:26:56.647Z,2.95
2017-01-15T02:27:22.747Z,2.83
2017-01-15T02:27:48.847Z,2.98
2017-01-15T02:28:14.938Z,3.01
2017-01-15T02:28:41.046Z,2.93
2017-01-15T02:29:07.131Z,3.01
2017-01-15T02:29:33.228Z,3.01
2017-01-15T02:29:59.329Z,2.93
2017-01-15T02:30:25.419Z,2.85
2017-01-15T02:30:51.515Z,2.93
2017-01-15T02:31:17.621Z,2.97
2017-01-15T02:31:43.711Z,2.98
2017-01-15T02:32:09.801Z,2.95
2017-01-15T02:32:35.940Z,3.07
2017-01-15T02:33:02.037Z,3.01
2017-01-15T02:33:28.131Z,2.97
2017-01-15T02:33:54.231Z,2.98
2017-01-15T02:34:20.322Z,2.93
2017-01-15T02:34:46.428Z,2.95
2017-01-15T02:35:12.521Z,2.83
2017-01-15T02:35:38.610Z,2.89
2017-01-15T02:36:04.719Z,2.83
2017-01-15T02:36:30.815Z,2.92
2017-01-15T02:36:56.902Z,2.83
2017-01-15T02:37:23.010Z,2.86
2017-01-15T02:37:49.112Z,2.9
2017-01-15T02:38:15.202Z,2.87
2017-01-15T02:38:41.329Z,2.85
2017-01-15T02:39:07.429Z,2.79
2017-01-15T02:39:33.514Z,2.85
2017-01-15T02:39:59.613Z,2.86
2017-01-15T02:40:25.716Z,2.83
2017-01-15T02:40:51.810Z,2.87
2017-01-15T02:41:17.906Z,2.89
2017-01-15T02:41:44.012Z,2.77
2017-01-15T02:42:10.100Z,2.83
2017-01-15T02:42:36.186Z,2.79
2017-01-15T02:43:02.300Z,2.85
2017-01-15T02:43:28.396Z,2.83
2017-01-15T02:43:54.483Z,2.85
2017-01-15T02:44:20.588Z,2.85
2017-01-15T02:44:46.685Z,2.86
2017-01-15T02:45:12.785Z,2.87
2017-01-15T02:45:38.881Z,2.82
2017-01-15T02:46:04.968Z,2.82
2017-01-15T02:46:31.079Z,2.82
2017-01-15T02:46:57.169Z,2.79
2017-01-15T02:47:23.258Z,2.86
2017-01-15T02:47:49.363Z,2.86
2017-01-15T02:48:15.468Z,2.79
2017-01-15T02:48:41.573Z,2.77
2017-01-15T02:49:07.672Z,2.8
2017-01-15T02:49:33.777Z,2.77
2017-01-15T02:49:59.864Z,2.68
2017-01-15T02:50:25.989Z,2.72
2017-01-15T02:50:52.079Z,2.69
2017-01-15T02:51:18.182Z,2.57
2017-01-15T02:51:44.281Z,2.71
2017-01-15T02:52:10.373Z,2.75
2017-01-15T02:52:36.471Z,2.65
2017-01-15T02:53:02.579Z,2.72
2017-01-15T02:53:28.666Z,2.67
2017-01-15T02:53:54.766Z,2.75
2017-01-15T02:54:20.875Z,2.74
2017-01-15T02:54:46.958Z,2.85
2017-01-15T02:55:13.055Z,2.82
2017-01-15T02:55:39.153Z,2.82
2017-01-15T02:56:05.301Z,2.89
2017-01-15T02:56:31.401Z,2.85
2017-01-15T02:56:57.486Z,2.85
2017-01-15T02:57:23.582Z,2.87
2017-01-15T02:57:49.687Z,2.86
2017-01-15T02:58:15.776Z,2.85
2017-01-15T02:58:41.867Z,2.85
2017-01-15T02:59:07.978Z,2.82
2017-01-15T02:59:34.068Z,2.9
2017-01-15T03:00:00.154Z,2.89
2017-01-15T03:00:26.266Z,2.85
2017-01-15T03:00:52.364Z,2.82
2017-01-15T03:01:18.454Z,2.82
2017-01-15T03:01:44.558Z,2.75
2017-01-15T03:02:10.647Z,2.74
2017-01-15T03:02:36.757Z,2.72
2017-01-15T03:03:02.849Z,2.77
2017-01-15T03:03:28.940Z,2.67
2017-01-15T03:03:55.048Z,2.77
2017-01-15T03:04:21.138Z,2.64
2017-01-15T03:04:47.232Z,2.71
2017-01-15T03:05:13.369Z,2.77
2017-01-15T03:05:39.470Z,2.74
2017-01-15T03:06:05.555Z,2.74
2017-01-15T03:06:31.664Z,2.72
2017-01-15T03:06:57.763Z,2.67
2017-01-15T03:07:23.856Z,2.77
2017-01-15T03:07:49.961Z,2.69
2017-01-15T03:08:16.038Z,2.74
2017-01-15T03:08:42.144Z,2.69
2017-01-15T03:09:08.267Z,2.79
2017-01-15T03:09:34.357Z,2.77
2017-01-15T03:10:00.463Z,2.75
2017-01-15T03:10:26.599Z,2.86
2017-01-15T03:10:52.681Z,2.83
2017-01-15T03:11:18.781Z,2.87
2017-01-15T03:11:44.886Z,2.97
2017-01-15T03:12:10.975Z,2.97
2017-01-15T03:12:37.071Z,2.95
2017-01-15T03:13:03.161Z,2.86
2017-01-15T03:13:29.263Z,2.86
2017-01-15T03:13:55.374Z,2.8
2017-01-15T03:14:21.458Z,2.85
2017-01-15T03:14:47.554Z,2.86
2017-01-15T03:15:13.657Z,2.87
2017-01-15T03:15:39.745Z,2.85
2017-01-15T03:16:05.841Z,2.85
2017-01-15T03:16:31.944Z,2.85
2017-01-15T03:16:58.038Z,2.86
2017-01-15T03:17:24.136Z,2.85
2017-01-15T03:17:50.239Z,2.77
2017-01-15T03:18:16.336Z,2.89
2017-01-15T03:18:42.442Z,2.9
2017-01-15T03:19:08.525Z,2.8
2017-01-15T03:19:34.620Z,2.85
2017-01-15T03:20:00.723Z,2.82
2017-01-15T03:20:26.823Z,2.9
2017-01-15T03:20:52.913Z,2.83
2017-01-15T03:21:19.046Z,2.82
2017-01-15T03:21:45.135Z,2.86
2017-01-15T03:22:11.222Z,3
2017-01-15T03:22:37.325Z,2.95
2017-01-15T03:23:03.418Z,2.95
2017-01-15T03:23:29.508Z,2.97
2017-01-15T03:23:55.606Z,2.98
2017-01-15T03:24:21.716Z,3
2017-01-15T03:24:47.796Z,3.03
2017-01-15T03:25:13.889Z,3.07
2017-01-15T03:25:39.993Z,3.01
2017-01-15T03:26:06.083Z,2.98
2017-01-15T03:26:32.185Z,2.98
2017-01-15T03:26:58.287Z,2.98
2017-01-15T03:27:24.376Z,2.98
2017-01-15T03:27:50.464Z,3.01
2017-01-15T03:28:16.576Z,2.92
2017-01-15T03:28:42.675Z,3
2017-01-15T03:29:08.764Z,3.01
2017-01-15T03:29:34.874Z,3.04
2017-01-15T03:30:00.962Z,3.04
2017-01-15T03:30:27.097Z,3.08
2017-01-15T03:30:53.189Z,3.16
2017-01-15T03:31:19.275Z,3.1
2017-01-15T03:31:45.388Z,2.97
2017-01-15T03:32:11.484Z,3.03
2017-01-15T03:32:37.570Z,2.97
2017-01-15T03:33:03.676Z,2.86
2017-01-15T03:33:29.772Z,2.85
2017-01-15T03:33:55.864Z,2.85
2017-01-15T03:34:21.965Z,2.85
2017-01-15T03:34:48.097Z,2.86
2017-01-15T03:35:14.191Z,2.8
2017-01-15T03:35:40.288Z,2.83
2017-01-15T03:36:06.379Z,2.83
2017-01-15T03:36:32.530Z,2.85
2017-01-15T03:36:58.629Z,2.85
2017-01-15T03:37:24.715Z,2.98
2017-01-15T03:37:50.820Z,2.89
2017-01-15T03:38:16.924Z,2.95
2017-01-15T03:38:43.011Z,2.86
2017-01-15T03:39:09.138Z,2.93
2017-01-15T03:39:35.241Z,2.97
2017-01-15T03:40:01.336Z,3.01
2017-01-15T03:40:27.432Z,3.01
2017-01-15T03:40:53.532Z,3.03
2017-01-15T03:41:19.631Z,2.97
2017-01-15T03:41:45.735Z,3.07
2017-01-15T03:42:11.822Z,3.01
2017-01-15T03:42:37.923Z,3.08
2017-01-15T03:43:04.033Z,3.05
2017-01-15T03:43:30.116Z,3
2017-01-15T03:43:56.212Z,2.97
2017-01-15T03:44:22.316Z,3
2017-01-15T03:44:48.411Z,2.93
2017-01-15T03:45:14.499Z,2.86
2017-01-15T03:45:40.601Z,2.98
2017-01-15T03:46:06.692Z,2.92
2017-01-15T03:46:32.791Z,2.83
2017-01-15T03:46:58.875Z,2.87
2017-01-15T03:47:24.966Z,2.98
2017-01-15T03:47:51.073Z,2.87
2017-01-15T03:48:17.166Z,2.89
2017-01-15T03:48:43.262Z,2.83
2017-01-15T03:49:09.367Z,2.97
2017-01-15T03:49:35.466Z,2.97
2017-01-15T03:50:01.551Z,3.01
2017-01-15T03:50:27.656Z,3.04
2017-01-15T03:50:53.748Z,3.01
2017-01-15T03:51:19.841Z,2.93
2017-01-15T03:51:45.943Z,2.95
2017-01-15T03:52:12.030Z,2.97
2017-01-15T03:52:38.141Z,3
2017-01-15T03:53:04.237Z,2.95
2017-01-15T03:53:30.331Z,3.03
2017-01-15T03:53:56.435Z,3.04
2017-01-15T03:54:22.530Z,3.08
2017-01-15T03:54:48.617Z,3.07
2017-01-15T03:55:14.716Z,3.08
2017-01-15T03:55:40.826Z,3
2017-01-15T03:56:06.909Z,3.03
2017-01-15T03:56:33.010Z,2.98
2017-01-15T03:56:59.111Z,2.95
2017-01-15T03:57:25.201Z,2.97
2017-01-15T03:57:51.301Z,3.01
2017-01-15T03:58:17.386Z,2.97
2017-01-15T03:58:43.490Z,2.97
2017-01-15T03:59:09.617Z,2.98
2017-01-15T03:59:35.706Z,3.07
2017-01-15T04:00:01.804Z,3.07
2017-01-15T04:00:27.910Z,3.01
2017-01-15T04:00:53.996Z,3.07
2017-01-15T04:01:20.091Z,3.11
2017-01-15T04:01:46.196Z,3.05
2017-01-15T04:02:12.290Z,3.07
2017-01-15T04:02:38.383Z,3.03
2017-01-15T04:03:04.483Z,3.04
2017-01-15T04:03:30.578Z,3.1
2017-01-15T04:03:56.684Z,3.05
2017-01-15T04:04:22.773Z,3.03
2017-01-15T04:04:48.875Z,3.05
2017-01-15T04:05:14.974Z,3.05
2017-01-15T04:05:41.065Z,3.01
2017-01-15T04:06:07.149Z,3.05
2017-01-15T04:06:33.265Z,3.07
2017-01-15T04:06:59.356Z,2.97
2017-01-15T04:07:25.448Z,3.08
2017-01-15T04:07:51.547Z,3.04
2017-01-15T04:08:17.669Z,3.08
2017-01-15T04:08:43.760Z,2.98
2017-01-15T04:09:09.864Z,2.98
2017-01-15T04:09:35.975Z,2.93
2017-01-15T04:10:02.054Z,3
2017-01-15T04:10:28.154Z,2.98
2017-01-15T04:10:54.262Z,2.95
2017-01-15T04:11:20.352Z,3.07
2017-01-15T04:11:46.441Z,3.1
2017-01-15T04:12:12.549Z,3.08
2017-01-15T04:12:38.642Z,3.08
2017-01-15T04:13:04.732Z,3.03
2017-01-15T04:13:30.841Z,3.13
2017-01-15T04:13:56.933Z,3.07
2017-01-15T04:14:23.036Z,3.05
2017-01-15T04:14:49.126Z,3.08
2017-01-15T04:15:15.222Z,3.08
2017-01-15T04:15:41.330Z,3.13
2017-01-15T04:16:07.423Z,3.1
2017-01-15T04:16:33.510Z,3.11
2017-01-15T04:16:59.622Z,3.08
2017-01-15T04:17:25.746Z,3.04
2017-01-15T04:17:51.829Z,3.07
2017-01-15T04:18:17.936Z,3.05
2017-01-15T04:18:44.034Z,3.08
2017-01-15T04:19:10.150Z,3.08
2017-01-15T04:19:36.253Z,3.01
2017-01-15T04:20:02.340Z,3.04
2017-01-15T04:20:28.452Z,3.08
2017-01-15T04:20:54.544Z,3.08
2017-01-15T04:21:20.630Z,2.98
2017-01-15T04:21:46.737Z,3.04
2017-01-15T04:22:12.840Z,2.98
2017-01-15T04:22:38.926Z,2.93
2017-01-15T04:23:05.029Z,2.93
2017-01-15T04:23:31.137Z,3.01
2017-01-15T04:23:57.222Z,2.93
2017-01-15T04:24:23.317Z,2.98
2017-01-15T04:24:49.419Z,3.05
2017-01-15T04:25:15.512Z,3.05
2017-01-15T04:25:41.615Z,3.08
2017-01-15T04:26:07.701Z,3.07
2017-01-15T04:26:33.807Z,3.08
2017-01-15T04:26:59.913Z,3.03
2017-01-15T04:27:25.999Z,2.93
2017-01-15T04:27:52.094Z,2.92
2017-01-15T04:28:18.205Z,2.85
2017-01-15T04:28:44.289Z,2.98
2017-01-15T04:29:10.383Z,2.89
2017-01-15T04:29:36.487Z,2.85
2017-01-15T04:30:02.582Z,2.87
2017-01-15T04:30:28.671Z,2.85
2017-01-15T04:30:54.776Z,2.8
2017-01-15T04:31:20.872Z,2.89
2017-01-15T04:31:46.964Z,2.89
2017-01-15T04:32:13.074Z,2.92
2017-01-15T04:32:39.167Z,2.98
2017-01-15T04:33:05.288Z,2.86
2017-01-15T04:33:31.386Z,2.87
2017-01-15T04:33:57.497Z,2.97
2017-01-15T04:34:23.577Z,3
2017-01-15T04:34:49.677Z,3.03
2017-01-15T04:35:15.778Z,3
2017-01-15T04:35:41.872Z,3.03
2017-01-15T04:36:07.969Z,3.01
2017-01-15T04:36:34.067Z,3.07
2017-01-15T04:37:00.168Z,3.11
2017-01-15T04:37:26.296Z,3.1
2017-01-15T04:37:52.379Z,3.05
2017-01-15T04:38:18.483Z,3.1
2017-01-15T04:38:44.586Z,3.03
2017-01-15T04:39:10.701Z,3.03
2017-01-15T04:39:36.795Z,3.08
2017-01-15T04:40:02.910Z,3.04
2017-01-15T04:40:28.996Z,3.03
2017-01-15T04:40:55.085Z,2.98
2017-01-15T04:41:21.190Z,2.95
2017-01-15T04:41:47.288Z,3
2017-01-15T04:42:13.389Z,3.01
2017-01-15T04:42:39.471Z,3.01
2017-01-15T04:43:05.568Z,2.95
2017-01-15T04:43:31.673Z,3.01
2017-01-15T04:43:57.761Z,2.86
2017-01-15T04:44:23.852Z,3
2017-01-15T04:44:49.958Z,3
2017-01-15T04:45:16.054Z,3.05
2017-01-15T04:45:42.137Z,3.04
2017-01-15T04:46:08.244Z,3.04
2017-01-15T04:46:34.341Z,2.92
2017-01-15T04:47:00.439Z,2.93
2017-01-15T04:47:26.537Z,2.95
2017-01-15T04:47:52.621Z,2.97
2017-01-15T04:48:18.729Z,2.98
2017-01-15T04:48:44.829Z,2.97
2017-01-15T04:49:10.925Z,2.92
2017-01-15T04:49:37.026Z,2.8
2017-01-15T04:50:03.123Z,2.93
2017-01-15T04:50:29.216Z,2.97
2017-01-15T04:50:55.316Z,2.86
2017-01-15T04:51:21.425Z,2.95
2017-01-15T04:51:47.507Z,2.92
2017-01-15T04:52:13.608Z,2.95
2017-01-15T04:52:39.706Z,2.87
2017-01-15T04:53:05.799Z,2.85
2017-01-15T04:53:31.891Z,2.93
2017-01-15T04:53:57.999Z,3
2017-01-15T04:54:24.092Z,3.01
2017-01-15T04:54:50.179Z,3.08
2017-01-15T04:55:16.288Z,3.03
2017-01-15T04:55:42.382Z,3
2017-01-15T04:56:08.464Z,3.01
2017-01-15T04:56:34.574Z,3.03
2017-01-15T04:57:00.683Z,3.07
2017-01-15T04:57:26.766Z,3.07
2017-01-15T04:57:52.861Z,3.07
2017-01-15T04:58:18.968Z,3
2017-01-15T04:58:45.062Z,2.95
2017-01-15T04:59:11.154Z,2.98
2017-01-15T04:59:37.239Z,2.97
2017-01-15T05:00:03.345Z,2.89
2017-01-15T05:00:29.445Z,2.97
2017-01-15T05:00:55.536Z,2.97
2017-01-15T05:01:21.640Z,3.01
2017-01-15T05:01:47.747Z,3
2017-01-15T05:02:13.826Z,2.92
2017-01-15T05:02:39.928Z,2.97
2017-01-15T05:03:06.059Z,3.01
2017-01-15T05:03:32.148Z,2.98
2017-01-15T05:03:58.244Z,2.92
2017-01-15T05:04:24.336Z,2.8
2017-01-15T05:04:50.436Z,2.95
2017-01-15T05:05:16.544Z,2.92
2017-01-15T05:05:42.631Z,2.9
2017-01-15T05:06:08.729Z,2.87
2017-01-15T05:06:34.832Z,2.86
2017-01-15T05:07:00.923Z,2.83
2017-01-15T05:07:27.017Z,2.87
2017-01-15T05:07:53.124Z,2.92
2017-01-15T05:08:19.218Z,2.89
2017-01-15T05:08:45.309Z,2.87
2017-01-15T05:09:11.413Z,2.8
2017-01-15T05:09:37.510Z,2.87
2017-01-15T05:10:03.618Z,2.85
2017-01-15T05:10:29.705Z,2.87
2017-01-15T05:10:55.796Z,2.87
2017-01-15T05:11:21.904Z,2.83
2017-01-15T05:11:47.988Z,2.83
2017-01-15T05:12:14.078Z,2.9
2017-01-15T05:12:40.187Z,2.86
2017-01-15T05:13:06.287Z,2.79
2017-01-15T05:13:32.371Z,2.77
2017-01-15T05:13:58.478Z,2.72
2017-01-15T05:14:24.572Z,2.86
2017-01-15T05:14:50.664Z,2.8
2017-01-15T05:15:16.767Z,2.75
2017-01-15T05:15:42.858Z,2.93
2017-01-15T05:16:08.963Z,2.87
2017-01-15T05:16:35.059Z,2.87
2017-01-15T05:17:01.151Z,2.86
2017-01-15T05:17:27.253Z,2.9
2017-01-15T05:17:53.352Z,2.87
2017-01-15T05:18:19.436Z,2.8
2017-01-15T05:18:45.538Z,2.89
2017-01-15T05:19:11.649Z,2.8
2017-01-15T05:19:37.727Z,3
2017-01-15T05:20:03.828Z,2.93
2017-01-15T05:20:29.935Z,2.97
2017-01-15T05:20:56.020Z,2.95
2017-01-15T05:21:22.119Z,2.93
2017-01-15T05:21:48.211Z,2.95
2017-01-15T05:22:14.312Z,3.01
2017-01-15T05:22:40.416Z,2.97
2017-01-15T05:23:06.495Z,2.97
2017-01-15T05:23:32.596Z,3.01
2017-01-15T05:23:58.703Z,3
2017-01-15T05:24:24.789Z,3
2017-01-15T05:24:50.886Z,2.89
2017-01-15T05:25:16.996Z,2.92
2017-01-15T05:25:43.088Z,2.82
2017-01-15T05:26:09.170Z,2.93
2017-01-15T05:26:35.276Z,2.98
2017-01-15T05:27:01.376Z,2.85
2017-01-15T05:27:27.475Z,2.87
2017-01-15T05:27:53.565Z,2.95
2017-01-15T05:28:19.659Z,3.01
2017-01-15T05:28:45.765Z,3
2017-01-15T05:29:11.859Z,3.01
2017-01-15T05:29:37.946Z,3.03
2017-01-15T05:30:04.054Z,3.01
2017-01-15T05:30:30.156Z,2.95
2017-01-15T05:30:56.241Z,2.85
2017-01-15T05:31:22.350Z,2.85
2017-01-15T05:31:48.447Z,2.85
2017-01-15T05:32:14.544Z,2.86
2017-01-15T05:32:40.632Z,2.87
2017-01-15T05:33:06.726Z,2.85
2017-01-15T05:33:32.829Z,2.71
2017-01-15T05:33:58.930Z,2.74
2017-01-15T05:34:25.015Z,2.68
2017-01-15T05:34:51.120Z,2.72
2017-01-15T05:35:17.219Z,2.75
2017-01-15T05:35:43.309Z,2.85
2017-01-15T05:36:09.410Z,2.85
2017-01-15T05:36:35.518Z,2.75
2017-01-15T05:37:01.605Z,2.75
2017-01-15T05:37:27.701Z,2.74
2017-01-15T05:37:53.802Z,2.72
2017-01-15T05:38:19.897Z,2.67
2017-01-15T05:38:45.993Z,2.72
2017-01-15T05:39:12.099Z,2.62
2017-01-15T05:39:38.187Z,2.65
2017-01-15T05:40:04.274Z,2.67
2017-01-15T05:40:30.385Z,2.64
2017-01-15T05:40:56.482Z,2.57
2017-01-15T05:41:22.571Z,2.54
2017-01-15T05:41:48.674Z,2.65
2017-01-15T05:42:14.775Z,2.68
2017-01-15T05:42:40.866Z,2.71
2017-01-15T05:43:06.966Z,2.61
2017-01-15T05:43:33.057Z,2.69
2017-01-15T05:43:59.160Z,2.64
2017-01-15T05:44:25.256Z,2.69
2017-01-15T05:44:51.342Z,2.72
2017-01-15T05:45:17.447Z,2.72
2017-01-15T05:45:43.548Z,2.77
2017-01-15T05:46:09.633Z,2.82
2017-01-15T05:46:35.731Z,2.75
2017-01-15T05:47:01.833Z,2.77
2017-01-15T05:47:27.917Z,2.77
2017-01-15T05:47:54.009Z,2.72
2017-01-15T05:48:20.112Z,2.71
2017-01-15T05:48:46.202Z,2.67
2017-01-15T05:49:12.302Z,2.69